TimeCDT,TemperatureF,Dew PointF,Humidity,Sea Level PressureIn,VisibilityMPH,Wind Direction,Wind SpeedMPH,Gust SpeedMPH,PrecipitationIn,Events,Conditions,WindDirDegrees,DateUTC
12:53 AM,75.0,61.0,62,29.94,10.0,SE,9.2,-,N/A,,Clear,130,2013-08-28 05:53:00
1:53 AM,73.9,62.1,66,29.93,10.0,SE,9.2,-,N/A,,Clear,140,2013-08-28 06:53:00
2:53 AM,-9999,-9999,N/A,30.06,-9999.0,North,-9999.0,-,N/A,,Unknown,0,2013-08-28 07:53:00
3:53 AM,-9999,-9999,N/A,30.06,-9999.0,North,-9999.0,-,N/A,,Unknown,0,2013-08-28 08:53:00
4:53 AM,72.0,63.0,73,29.92,10.0,SE,10.4,-,N/A,,Unknown,130,2013-08-28 09:53:00
5:53 AM,71.1,63.0,75,29.94,10.0,SE,8.1,-,N/A,,Clear,130,2013-08-28 10:53:00
6:53 AM,70.0,63.0,78,29.95,10.0,ESE,6.9,-,N/A,,Clear,120,2013-08-28 11:53:00
7:53 AM,69.1,63.0,81,29.97,10.0,SE,9.2,-,N/A,,Clear,130,2013-08-28 12:53:00
8:53 AM,71.1,64.0,78,29.99,10.0,SE,12.7,-,N/A,,Clear,140,2013-08-28 13:53:00
9:53 AM,75.9,64.9,69,29.99,10.0,SE,16.1,-,N/A,,Clear,140,2013-08-28 14:53:00
10:53 AM,80.1,64.0,58,29.99,10.0,SE,16.1,-,N/A,,Clear,140,2013-08-28 15:53:00
11:53 AM,82.9,63.0,51,29.99,10.0,SSE,15.0,21.9,N/A,,Partly Cloudy,160,2013-08-28 16:53:00
12:53 PM,84.0,61.0,46,29.98,10.0,SSE,10.4,-,N/A,,Partly Cloudy,160,2013-08-28 17:53:00
1:53 PM,88.0,60.1,39,29.96,10.0,SSE,15.0,20.7,N/A,,Scattered Clouds,150,2013-08-28 18:53:00
2:53 PM,90.0,59.0,35,30.07,10.0,SSE,12.7,19.6,N/A,,Scattered Clouds,160,2013-08-28 19:53:00
3:53 PM,91.0,59.0,34,30.05,10.0,SSE,16.1,21.9,N/A,,Mostly Cloudy,160,2013-08-28 20:53:00
4:53 PM,91.0,57.9,33,29.89,10.0,SE,6.9,19.6,N/A,,Scattered Clouds,130,2013-08-28 21:53:00
5:53 PM,91.0,59.0,34,29.88,10.0,SSE,13.8,20.7,N/A,,Partly Cloudy,150,2013-08-28 22:53:00
6:53 PM,90.0,59.0,35,29.88,10.0,SE,15.0,21.9,N/A,,Clear,140,2013-08-28 23:53:00
7:53 PM,88.0,59.0,37,29.90,10.0,ESE,18.4,24.2,N/A,,Clear,120,2013-08-29 00:53:00
8:53 PM,86.0,57.9,38,29.92,10.0,SE,13.8,-,N/A,,Clear,140,2013-08-29 01:53:00
9:53 PM,84.0,57.9,41,29.94,10.0,SE,13.8,-,N/A,,Clear,130,2013-08-29 02:53:00
10:53 PM,82.0,55.9,41,29.96,10.0,SE,13.8,-,N/A,,Clear,130,2013-08-29 03:53:00
11:53 PM,81.0,55.0,41,29.97,10.0,SE,11.5,-,N/A,,Clear,140,2013-08-29 04:53:00